createdAt,value
2023-05-14T00:00:04.878Z,82.06
2023-05-14T00:02:33.127Z,81.99
2023-05-14T00:04:59.852Z,81.43
2023-05-14T00:07:30.804Z,80.44
2023-05-14T00:09:58.371Z,81.10
2023-05-14T00:12:26.317Z,81.66
2023-05-14T00:14:53.479Z,81.52
2023-05-14T00:17:20.088Z,81.94
2023-05-14T00:19:46.823Z,81.82
2023-05-14T00:22:13.549Z,82.14
2023-05-14T00:24:40.208Z,81.32
2023-05-14T00:27:07.281Z,81.34
2023-05-14T00:29:34.175Z,81.09
2023-05-14T00:32:00.809Z,81.05
2023-05-14T00:34:27.507Z,79.81
2023-05-14T00:36:54.165Z,80.66
2023-05-14T00:39:21.044Z,80.64
2023-05-14T00:41:47.692Z,81.02
2023-05-14T00:44:14.341Z,80.91
2023-05-14T00:46:41.198Z,80.86
2023-05-14T00:49:08.325Z,80.93
2023-05-14T00:51:34.969Z,81.03
2023-05-14T00:54:01.916Z,82.21
2023-05-14T00:56:29.084Z,82.49
2023-05-14T00:58:55.863Z,80.95
2023-05-14T01:01:22.752Z,81.16
2023-05-14T01:03:49.879Z,80.94
2023-05-14T01:06:53.663Z,81.80
2023-05-14T01:09:56.869Z,81.27
2023-05-14T01:12:39.535Z,80.80
2023-05-14T01:15:12.718Z,81.39
2023-05-14T01:17:46.285Z,81.81
2023-05-14T01:20:13.507Z,80.95
2023-05-14T01:22:40.220Z,81.29
2023-05-14T01:25:07.488Z,81.48
2023-05-14T01:27:43.175Z,81.67
2023-05-14T01:30:17.988Z,81.94
2023-05-14T01:32:51.045Z,82.68
2023-05-14T01:35:18.916Z,82.69
2023-05-14T01:37:47.171Z,81.38
2023-05-14T01:40:14.719Z,80.85
2023-05-14T01:42:42.701Z,80.97
2023-05-14T01:45:09.951Z,81.05
2023-05-14T01:47:36.703Z,81.64
2023-05-14T01:50:03.761Z,81.61
2023-05-14T01:52:30.361Z,81.83
2023-05-14T01:54:58.407Z,81.36
2023-05-14T01:57:25.056Z,81.88
2023-05-14T01:59:51.861Z,81.35
2023-05-14T02:02:18.493Z,81.69
2023-05-14T02:04:45.306Z,81.04
2023-05-14T02:07:11.958Z,81.35
2023-05-14T02:09:40.078Z,81.91
2023-05-14T02:12:08.707Z,82.27
2023-05-14T02:14:35.948Z,81.42
2023-05-14T02:17:03.506Z,81.19
2023-05-14T02:19:30.558Z,80.72
2023-05-14T02:21:59.360Z,81.52
2023-05-14T02:24:26.101Z,82.25
2023-05-14T02:26:53.077Z,82.33
2023-05-14T02:29:19.809Z,82.88
2023-05-14T02:31:46.365Z,82.43
2023-05-14T02:34:13.087Z,83.58
2023-05-14T02:36:40.029Z,83.83
2023-05-14T02:39:06.664Z,83.49
2023-05-14T02:41:33.381Z,83.14
2023-05-14T02:44:00.114Z,83.99
2023-05-14T02:46:26.814Z,83.97
2023-05-14T02:48:54.982Z,84.52
2023-05-14T02:51:21.887Z,83.72
2023-05-14T02:53:48.981Z,84.42
2023-05-14T02:56:15.904Z,83.67
2023-05-14T02:58:42.689Z,82.98
2023-05-14T03:01:09.464Z,83.58
2023-05-14T03:03:36.846Z,83.02
2023-05-14T03:06:04.905Z,84.04
2023-05-14T03:08:31.669Z,83.49
2023-05-14T03:10:58.474Z,83.61
2023-05-14T03:13:25.324Z,83.57
2023-05-14T03:15:54.958Z,83.59
2023-05-14T03:18:22.251Z,83.19
2023-05-14T03:20:49.039Z,83.39
2023-05-14T03:23:15.846Z,83.08
2023-05-14T03:25:42.581Z,82.74
2023-05-14T03:28:09.816Z,82.58
2023-05-14T03:30:36.588Z,82.00
2023-05-14T03:33:03.640Z,82.21
2023-05-14T03:35:30.263Z,82.25
2023-05-14T03:37:59.209Z,82.33
2023-05-14T03:40:26.196Z,81.56
2023-05-14T03:42:52.983Z,82.31
2023-05-14T03:45:19.905Z,81.87
2023-05-14T03:47:46.726Z,82.11
2023-05-14T03:50:13.439Z,83.13
2023-05-14T03:52:40.589Z,84.13
2023-05-14T03:55:08.488Z,84.30
2023-05-14T03:57:36.718Z,84.28
2023-05-14T04:00:07.238Z,84.11
2023-05-14T04:02:43.755Z,83.97
2023-05-14T04:05:11.109Z,84.28
2023-05-14T04:07:37.860Z,83.87
2023-05-14T04:10:05.023Z,82.65
2023-05-14T04:12:34.505Z,83.15
2023-05-14T04:15:01.528Z,83.25
2023-05-14T04:17:28.466Z,83.15
2023-05-14T04:19:55.153Z,83.41
2023-05-14T04:22:21.735Z,83.87
2023-05-14T04:24:48.374Z,84.34
2023-05-14T04:27:21.448Z,84.39
2023-05-14T04:29:51.618Z,84.60
2023-05-14T04:32:18.398Z,84.54
2023-05-14T04:34:45.083Z,84.54
2023-05-14T04:37:11.815Z,85.28
2023-05-14T04:39:38.782Z,85.49
2023-05-14T04:42:06.812Z,86.00
2023-05-14T04:44:37.677Z,85.19
2023-05-14T04:47:04.737Z,84.65
2023-05-14T04:49:31.888Z,85.14
2023-05-14T04:51:58.586Z,85.17
2023-05-14T04:54:25.243Z,85.25
2023-05-14T04:56:51.990Z,85.93
2023-05-14T04:59:18.641Z,85.99
2023-05-14T05:01:45.923Z,85.12
2023-05-14T05:04:13.043Z,85.23
2023-05-14T05:06:40.119Z,83.69
2023-05-14T05:09:06.808Z,85.04
2023-05-14T05:11:33.510Z,85.45
2023-05-14T05:14:00.613Z,86.58
2023-05-14T05:16:27.461Z,87.32
2023-05-14T05:18:54.195Z,86.51
2023-05-14T05:21:20.974Z,86.93
2023-05-14T05:23:47.607Z,86.42
2023-05-14T05:26:14.296Z,87.18
2023-05-14T05:28:41.014Z,87.26
2023-05-14T05:31:08.068Z,87.60
2023-05-14T05:33:35.601Z,87.56
2023-05-14T05:36:02.296Z,86.71
2023-05-14T05:38:28.907Z,86.15
2023-05-14T05:40:55.836Z,87.78
2023-05-14T05:43:22.427Z,87.92
2023-05-14T05:45:49.097Z,86.99
2023-05-14T05:48:15.708Z,86.18
2023-05-14T05:50:44.740Z,84.81
2023-05-14T05:53:11.378Z,85.61
2023-05-14T05:55:38.093Z,85.46
2023-05-14T05:58:04.762Z,85.58
2023-05-14T06:00:32.102Z,85.33
2023-05-14T06:02:58.689Z,85.52
2023-05-14T06:05:25.648Z,85.02
2023-05-14T06:07:53.642Z,85.52
2023-05-14T06:10:20.413Z,83.95
2023-05-14T06:12:47.145Z,85.77
2023-05-14T06:15:14.429Z,86.15
2023-05-14T06:17:41.543Z,85.79
2023-05-14T06:20:09.066Z,85.08
2023-05-14T06:22:35.858Z,84.48
2023-05-14T06:25:02.495Z,86.33
2023-05-14T06:27:29.174Z,86.63
2023-05-14T06:29:56.274Z,86.72
2023-05-14T06:32:23.103Z,84.98
2023-05-14T06:34:49.933Z,85.23
2023-05-14T06:37:16.514Z,87.25
2023-05-14T06:39:49.894Z,87.31
2023-05-14T06:42:17.225Z,87.22
2023-05-14T06:44:44.591Z,86.63
2023-05-14T06:47:11.422Z,85.22
2023-05-14T06:49:39.478Z,85.56
2023-05-14T06:52:06.655Z,87.75
2023-05-14T06:54:33.405Z,88.90
2023-05-14T06:57:00.334Z,86.84
2023-05-14T06:59:26.990Z,87.48
2023-05-14T07:01:53.889Z,87.40
2023-05-14T07:04:20.656Z,86.76
2023-05-14T07:06:47.573Z,87.09
2023-05-14T07:09:14.461Z,86.60
2023-05-14T07:11:41.158Z,85.93
2023-05-14T07:14:07.761Z,86.15
2023-05-14T07:16:34.721Z,86.35
2023-05-14T07:19:01.415Z,86.01
2023-05-14T07:21:28.256Z,86.08
2023-05-14T07:23:54.966Z,85.11
2023-05-14T07:26:24.262Z,86.76
2023-05-14T07:28:50.994Z,87.41
2023-05-14T07:31:18.249Z,87.17
2023-05-14T07:33:45.275Z,86.40
2023-05-14T07:36:11.997Z,86.48
2023-05-14T07:38:38.970Z,86.42
2023-05-14T07:41:05.753Z,86.35
2023-05-14T07:43:32.447Z,85.76
2023-05-14T07:45:59.332Z,85.57
2023-05-14T07:48:26.195Z,85.42
2023-05-14T07:50:52.836Z,84.75
2023-05-14T07:53:19.667Z,84.40
2023-05-14T07:55:48.420Z,84.96
2023-05-14T07:58:16.079Z,84.75
2023-05-14T08:00:42.788Z,85.30
2023-05-14T08:03:09.576Z,84.29
2023-05-14T08:05:36.334Z,84.06
2023-05-14T08:08:03.387Z,83.62
2023-05-14T08:10:31.471Z,84.23
2023-05-14T08:12:58.139Z,83.55
2023-05-14T08:15:27.579Z,84.81
2023-05-14T08:17:54.944Z,84.17
2023-05-14T08:20:22.287Z,84.94
2023-05-14T08:22:49.388Z,85.62
2023-05-14T08:25:16.136Z,84.37
2023-05-14T08:27:42.970Z,82.40
2023-05-14T08:30:09.928Z,82.31
2023-05-14T08:32:38.588Z,82.82
2023-05-14T08:35:05.884Z,84.64
2023-05-14T08:37:32.687Z,83.11
2023-05-14T08:39:59.340Z,82.28
2023-05-14T08:42:27.018Z,81.51
2023-05-14T08:45:02.617Z,81.63
2023-05-14T08:47:30.779Z,82.38
2023-05-14T08:50:08.326Z,83.55
2023-05-14T08:52:35.457Z,80.72
2023-05-14T08:55:06.605Z,79.67
2023-05-14T08:57:34.364Z,80.35
2023-05-14T09:00:02.294Z,80.31
2023-05-14T09:02:31.334Z,79.32
2023-05-14T09:04:59.820Z,80.03
2023-05-14T09:07:26.941Z,79.38
2023-05-14T09:09:54.510Z,81.06
2023-05-14T09:12:22.007Z,81.13
2023-05-14T09:14:49.953Z,80.82
2023-05-14T09:17:17.983Z,82.78
2023-05-14T09:19:49.063Z,80.30
2023-05-14T09:22:17.651Z,78.97
2023-05-14T09:24:44.873Z,80.16
2023-05-14T09:27:21.415Z,78.02
2023-05-14T09:29:48.603Z,77.80
2023-05-14T09:32:15.209Z,76.98
2023-05-14T09:34:42.393Z,76.90
2023-05-14T09:37:10.097Z,71.71
2023-05-14T09:39:38.148Z,73.23
2023-05-14T09:42:05.193Z,75.54
2023-05-14T09:44:32.085Z,72.51
2023-05-14T09:46:59.255Z,70.84
2023-05-14T09:49:26.132Z,70.30
2023-05-14T09:51:52.960Z,69.85
2023-05-14T09:54:19.833Z,76.06
2023-05-14T09:56:46.484Z,73.76
2023-05-14T09:59:13.338Z,71.57
2023-05-14T10:01:42.478Z,65.51
2023-05-14T10:04:11.162Z,68.80
2023-05-14T10:06:39.257Z,67.26
2023-05-14T10:09:16.855Z,66.74
2023-05-14T10:11:45.049Z,64.95
2023-05-14T10:14:18.605Z,69.88
2023-05-14T10:16:51.423Z,67.73
2023-05-14T10:19:20.818Z,66.92
2023-05-14T10:21:53.065Z,67.91
2023-05-14T10:24:20.755Z,66.59
2023-05-14T10:26:48.646Z,66.19
2023-05-14T10:29:15.618Z,69.46
2023-05-14T10:31:53.992Z,67.19
2023-05-14T10:34:44.111Z,67.87
2023-05-14T10:37:14.077Z,65.27
2023-05-14T10:39:43.760Z,64.66
2023-05-14T10:42:35.400Z,64.82
2023-05-14T10:45:07.360Z,60.54
2023-05-14T10:47:43.365Z,59.80
2023-05-14T10:50:12.509Z,60.48
2023-05-14T10:52:42.888Z,63.93
2023-05-14T10:55:13.911Z,65.07
2023-05-14T10:57:43.403Z,67.34
2023-05-14T11:00:11.448Z,65.22
2023-05-14T11:02:40.677Z,68.11
2023-05-14T11:05:11.081Z,64.54
2023-05-14T11:07:42.556Z,63.43
2023-05-14T11:10:11.771Z,59.64
2023-05-14T11:12:40.896Z,57.80
2023-05-14T11:15:13.289Z,58.11
2023-05-14T11:17:41.739Z,61.81
2023-05-14T11:20:09.147Z,65.29
2023-05-14T11:22:37.460Z,63.01
2023-05-14T11:25:04.816Z,60.71
2023-05-14T11:27:33.933Z,61.68
2023-05-14T11:30:01.110Z,62.75
2023-05-14T11:32:27.985Z,59.89
2023-05-14T11:34:54.695Z,63.28
2023-05-14T11:37:21.614Z,63.81
2023-05-14T11:39:55.537Z,60.78
2023-05-14T11:42:23.716Z,63.77
2023-05-14T11:44:52.250Z,60.89
2023-05-14T11:47:20.908Z,62.41
2023-05-14T11:49:48.661Z,61.02
2023-05-14T11:52:16.655Z,64.52
2023-05-14T11:54:44.422Z,60.52
2023-05-14T11:57:18.179Z,60.52
2023-05-14T11:59:45.532Z,56.00
2023-05-14T12:02:14.190Z,54.70
2023-05-14T12:04:42.257Z,53.44
2023-05-14T12:07:15.848Z,53.39
2023-05-14T12:09:50.044Z,53.27
2023-05-14T12:12:19.992Z,57.31
2023-05-14T12:14:46.896Z,53.79
2023-05-14T12:17:21.846Z,53.88
2023-05-14T12:19:52.415Z,52.68
2023-05-14T12:22:21.080Z,55.78
2023-05-14T12:24:58.691Z,53.57
2023-05-14T12:27:28.641Z,54.00
2023-05-14T12:30:09.126Z,57.00
2023-05-14T12:32:46.532Z,51.42
2023-05-14T12:35:13.247Z,51.57
2023-05-14T12:37:40.069Z,51.89
2023-05-14T12:40:09.512Z,50.99
2023-05-14T12:42:36.792Z,51.38
2023-05-14T12:45:07.044Z,51.34
2023-05-14T12:47:34.063Z,52.40
2023-05-14T12:50:00.756Z,55.20
2023-05-14T12:52:37.540Z,54.41
2023-05-14T12:55:05.835Z,53.46
2023-05-14T12:57:32.495Z,53.89
2023-05-14T12:59:59.217Z,53.37
2023-05-14T13:02:26.085Z,48.72
2023-05-14T13:04:52.727Z,52.88
2023-05-14T13:07:19.425Z,48.15
2023-05-14T13:09:46.154Z,54.01
2023-05-14T13:12:12.817Z,52.32
2023-05-14T13:14:39.469Z,51.61
2023-05-14T13:17:08.032Z,53.12
2023-05-14T13:19:34.890Z,54.94
2023-05-14T13:22:01.499Z,54.01
2023-05-14T13:24:28.152Z,55.32
2023-05-14T13:26:54.845Z,54.12
2023-05-14T13:29:21.585Z,53.78
2023-05-14T13:31:48.347Z,53.01
2023-05-14T13:34:14.989Z,52.50
2023-05-14T13:36:43.564Z,53.64
2023-05-14T13:39:13.091Z,54.31
2023-05-14T13:41:41.336Z,53.80
2023-05-14T13:44:07.920Z,53.34
2023-05-14T13:46:35.030Z,54.41
2023-05-14T13:49:01.851Z,54.50
2023-05-14T13:51:28.462Z,53.47
2023-05-14T13:56:26.650Z,53.46
2023-05-14T13:58:53.336Z,54.41
2023-05-14T14:01:20.001Z,55.98
2023-05-14T14:03:47.052Z,55.87
2023-05-14T14:06:13.812Z,56.62
2023-05-14T14:08:40.468Z,50.57
2023-05-14T14:11:07.215Z,49.23
2023-05-14T14:13:33.833Z,54.69
2023-05-14T14:16:03.057Z,51.25
2023-05-14T14:18:29.759Z,52.21
2023-05-14T14:20:56.398Z,51.65
2023-05-14T14:23:23.116Z,52.05
2023-05-14T14:25:49.831Z,51.56
2023-05-14T14:28:16.670Z,51.06
2023-05-14T14:30:43.950Z,51.73
2023-05-14T14:33:11.318Z,51.84
2023-05-14T14:35:38.101Z,53.05
2023-05-14T14:38:04.759Z,53.73
2023-05-14T14:40:33.879Z,53.75
2023-05-14T14:43:00.825Z,52.57
2023-05-14T14:45:28.142Z,52.35
2023-05-14T14:48:41.231Z,51.63
2023-05-14T14:51:08.852Z,53.32
2023-05-14T14:53:36.980Z,53.64
2023-05-14T14:56:04.472Z,52.67
2023-05-14T14:58:31.270Z,53.91
2023-05-14T15:00:58.658Z,57.25
2023-05-14T15:03:26.076Z,55.68
2023-05-14T15:05:53.832Z,56.19
2023-05-14T15:08:24.314Z,55.29
2023-05-14T15:10:51.155Z,54.85
2023-05-14T15:13:18.048Z,53.61
2023-05-14T15:15:44.762Z,53.05
2023-05-14T15:18:11.498Z,53.04
2023-05-14T15:20:38.698Z,52.91
2023-05-14T15:23:05.814Z,55.35
2023-05-14T15:25:32.646Z,53.32
2023-05-14T15:27:59.380Z,53.73
2023-05-14T15:30:26.315Z,55.13
2023-05-14T15:32:53.588Z,56.79
2023-05-14T15:35:20.523Z,59.25
2023-05-14T15:37:47.173Z,54.82
2023-05-14T15:40:13.966Z,56.67
2023-05-14T15:42:42.331Z,53.41
2023-05-14T15:45:10.403Z,55.17
2023-05-14T15:47:37.384Z,55.02
2023-05-14T15:50:05.337Z,55.08
2023-05-14T15:52:32.194Z,56.98
2023-05-14T15:54:59.581Z,55.86
2023-05-14T15:57:26.423Z,56.72
2023-05-14T15:59:53.117Z,57.68
2023-05-14T16:02:19.814Z,57.23
2023-05-14T16:04:46.511Z,56.49
2023-05-14T16:07:13.439Z,59.06
2023-05-14T16:09:40.472Z,56.68
2023-05-14T16:12:08.389Z,57.59
2023-05-14T16:14:35.802Z,57.88
2023-05-14T16:17:02.763Z,57.81
2023-05-14T16:19:29.483Z,57.98
2023-05-14T16:21:56.188Z,57.92
2023-05-14T16:24:22.858Z,58.18
2023-05-14T16:26:49.552Z,58.17
2023-05-14T16:29:16.352Z,58.42
2023-05-14T16:31:43.180Z,58.12
2023-05-14T16:34:09.954Z,58.93
2023-05-14T16:36:39.037Z,59.86
2023-05-14T16:39:07.720Z,61.46
2023-05-14T16:41:35.428Z,62.95
2023-05-14T16:44:02.504Z,62.42
2023-05-14T16:46:29.504Z,63.26
2023-05-14T16:48:56.625Z,62.48
2023-05-14T16:51:23.241Z,62.88
2023-05-14T16:53:49.847Z,62.76
2023-05-14T16:56:16.560Z,62.53
2023-05-14T16:58:43.294Z,62.80
2023-05-14T17:01:10.276Z,61.61
2023-05-14T17:03:37.683Z,61.35
2023-05-14T17:06:04.783Z,61.65
2023-05-14T17:08:33.635Z,62.73
2023-05-14T17:11:00.514Z,64.72
2023-05-14T17:13:27.333Z,64.09
2023-05-14T17:15:53.975Z,63.33
2023-05-14T17:18:20.809Z,63.07
2023-05-14T17:20:47.478Z,65.48
2023-05-14T17:23:14.149Z,63.94
2023-05-14T17:25:41.030Z,64.10
2023-05-14T17:28:07.999Z,64.49
2023-05-14T17:30:34.635Z,66.70
2023-05-14T17:33:01.730Z,66.41
2023-05-14T17:35:28.567Z,65.44
2023-05-14T17:37:55.239Z,66.97
2023-05-14T17:40:21.915Z,65.55
2023-05-14T17:42:48.720Z,65.93
2023-05-14T17:45:15.525Z,67.23
2023-05-14T17:47:42.386Z,67.37
2023-05-14T17:50:09.299Z,69.11
2023-05-14T17:52:36.028Z,67.92
2023-05-14T17:55:02.694Z,69.39
2023-05-14T17:57:29.673Z,69.11
2023-05-14T17:59:56.750Z,70.02
2023-05-14T18:02:23.395Z,70.26
2023-05-14T18:04:50.139Z,70.91
2023-05-14T18:07:16.927Z,70.98
2023-05-14T18:09:43.624Z,71.42
2023-05-14T18:12:10.385Z,70.89
2023-05-14T18:14:36.946Z,71.21
2023-05-14T18:17:03.862Z,72.26
2023-05-14T18:19:30.523Z,72.11
2023-05-14T18:21:57.214Z,72.73
2023-05-14T18:24:23.840Z,72.04
2023-05-14T18:26:50.590Z,72.36
2023-05-14T18:29:17.260Z,73.51
2023-05-14T18:31:44.132Z,73.57
2023-05-14T18:34:11.716Z,73.19
2023-05-14T18:36:38.539Z,72.70
2023-05-14T18:39:05.393Z,72.53
2023-05-14T18:41:32.127Z,71.59
2023-05-14T18:43:58.734Z,72.71
2023-05-14T18:46:25.912Z,73.42
2023-05-14T18:48:52.562Z,71.61
2023-05-14T18:51:19.353Z,72.39
2023-05-14T18:53:45.992Z,70.27
2023-05-14T18:56:12.767Z,70.96
2023-05-14T18:58:39.380Z,70.82
2023-05-14T19:01:06.372Z,70.81
2023-05-14T19:03:33.358Z,70.96
2023-05-14T19:06:00.185Z,71.50
2023-05-14T19:08:26.864Z,71.04
2023-05-14T19:10:53.666Z,70.71
2023-05-14T19:13:20.437Z,71.66
2023-05-14T19:15:47.365Z,70.78
2023-05-14T19:18:14.079Z,71.32
2023-05-14T19:20:40.732Z,71.69
2023-05-14T19:23:07.407Z,71.48
2023-05-14T19:25:34.330Z,71.21
2023-05-14T19:28:03.593Z,70.83
2023-05-14T19:30:30.854Z,71.92
2023-05-14T19:32:57.660Z,71.46
2023-05-14T19:35:24.884Z,72.17
2023-05-14T19:37:51.742Z,71.90
2023-05-14T19:40:18.438Z,72.65
2023-05-14T19:42:44.986Z,72.45
2023-05-14T19:45:11.843Z,72.12
2023-05-14T19:47:39.917Z,72.11
2023-05-14T19:50:08.435Z,71.34
2023-05-14T19:52:35.152Z,71.34
2023-05-14T19:55:01.929Z,70.76
2023-05-14T19:57:29.333Z,71.16
2023-05-14T19:59:56.014Z,71.15
2023-05-14T20:02:22.679Z,71.57
2023-05-14T20:04:49.519Z,71.48
2023-05-14T20:07:16.334Z,72.35
2023-05-14T20:09:42.970Z,71.86
2023-05-14T20:12:09.661Z,71.41
2023-05-14T20:14:36.366Z,71.64
2023-05-14T20:17:03.274Z,72.64
2023-05-14T20:19:30.618Z,72.61
2023-05-14T20:21:57.282Z,73.32
2023-05-14T20:24:24.058Z,74.08
2023-05-14T20:26:50.800Z,73.98
2023-05-14T20:29:17.505Z,74.76
2023-05-14T20:31:44.063Z,74.80
2023-05-14T20:34:10.745Z,75.30
2023-05-14T20:36:37.501Z,74.65
2023-05-14T20:39:06.182Z,75.37
2023-05-14T20:41:32.863Z,75.57
2023-05-14T20:43:59.713Z,75.48
2023-05-14T20:46:26.357Z,75.87
2023-05-14T20:48:57.143Z,75.60
2023-05-14T20:51:23.894Z,75.45
2023-05-14T20:53:50.512Z,75.39
2023-05-14T20:56:17.553Z,74.61
2023-05-14T20:58:44.186Z,74.50
2023-05-14T21:01:10.924Z,74.55
2023-05-14T21:03:37.716Z,74.43
2023-05-14T21:06:05.017Z,74.50
2023-05-14T21:08:32.952Z,74.35
2023-05-14T21:10:59.743Z,74.63
2023-05-14T21:13:26.402Z,74.67
2023-05-14T21:15:53.087Z,74.17
2023-05-14T21:18:19.749Z,74.48
2023-05-14T21:20:46.479Z,74.96
2023-05-14T21:23:13.077Z,75.83
2023-05-14T21:25:39.766Z,76.36
2023-05-14T21:28:06.640Z,76.63
2023-05-14T21:30:33.407Z,76.07
2023-05-14T21:33:00.245Z,75.86
2023-05-14T21:35:27.259Z,75.12
2023-05-14T21:37:54.356Z,75.40
2023-05-14T21:40:21.096Z,75.54
2023-05-14T21:42:47.872Z,75.29
2023-05-14T21:45:14.609Z,75.78
2023-05-14T21:47:41.456Z,75.33
2023-05-14T21:50:08.784Z,75.05
2023-05-14T21:52:35.788Z,74.94
2023-05-14T21:55:02.437Z,75.39
2023-05-14T21:57:31.820Z,75.20
2023-05-14T22:00:00.769Z,75.21
2023-05-14T22:02:27.446Z,75.20
2023-05-14T22:04:54.210Z,75.41
2023-05-14T22:07:21.080Z,75.81
2023-05-14T22:09:48.156Z,75.74
2023-05-14T22:12:14.864Z,75.42
2023-05-14T22:14:41.889Z,75.70
2023-05-14T22:17:08.474Z,75.58
2023-05-14T22:19:35.423Z,75.25
2023-05-14T22:22:02.104Z,75.77
2023-05-14T22:24:28.724Z,76.02
2023-05-14T22:26:55.622Z,76.82
2023-05-14T22:29:22.327Z,75.86
2023-05-14T22:31:49.019Z,75.85
2023-05-14T22:34:16.176Z,76.53
2023-05-14T22:36:42.754Z,76.46
2023-05-14T22:39:11.275Z,76.95
2023-05-14T22:41:39.473Z,76.07
2023-05-14T22:44:06.030Z,76.49
2023-05-14T22:46:32.783Z,76.52
2023-05-14T22:49:00.150Z,77.10
2023-05-14T22:51:26.893Z,77.51
2023-05-14T22:53:54.577Z,76.72
2023-05-14T22:56:22.211Z,76.41
2023-05-14T22:58:48.920Z,76.82
2023-05-14T23:01:15.851Z,76.29
2023-05-14T23:03:42.523Z,76.55
2023-05-14T23:06:09.216Z,76.28
2023-05-14T23:08:35.842Z,75.87
2023-05-14T23:11:02.526Z,76.20
2023-05-14T23:13:29.094Z,76.81
2023-05-14T23:15:55.758Z,77.37
2023-05-14T23:18:24.043Z,76.80
2023-05-14T23:20:50.760Z,76.63
2023-05-14T23:23:17.298Z,75.57
2023-05-14T23:25:44.187Z,75.97
2023-05-14T23:28:11.002Z,76.34
2023-05-14T23:30:37.919Z,75.58
2023-05-14T23:33:04.787Z,75.29
2023-05-14T23:35:31.710Z,75.07
2023-05-14T23:37:58.711Z,75.43
2023-05-14T23:40:25.977Z,75.60
2023-05-14T23:42:52.858Z,75.23
2023-05-14T23:45:19.864Z,75.53
2023-05-14T23:47:47.026Z,75.70
2023-05-14T23:50:14.143Z,75.76
2023-05-14T23:52:40.996Z,76.42
2023-05-14T23:55:10.389Z,76.82
2023-05-14T23:57:37.307Z,76.95
